createdAt,value
2018-05-01T00:00:04.504Z,3.50
2018-05-01T00:02:32.861Z,1.27
2018-05-01T00:05:00.464Z,2.37
2018-05-01T00:07:28.973Z,2.43
2018-05-01T00:09:56.553Z,1.63
2018-05-01T00:12:24.915Z,1.80
2018-05-01T00:14:52.507Z,1.70
2018-05-01T00:17:20.841Z,2.10
2018-05-01T00:19:48.417Z,1.97
2018-05-01T00:22:16.020Z,2.40
2018-05-01T00:24:44.349Z,1.20
2018-05-01T00:27:12.026Z,1.97
2018-05-01T00:29:39.661Z,3.13
2018-05-01T00:32:07.223Z,2.17
2018-05-01T00:34:34.854Z,2.40
2018-05-01T00:37:02.444Z,1.70
2018-05-01T00:39:30.804Z,3.30
2018-05-01T00:41:58.386Z,4.23
2018-05-01T00:44:25.968Z,3.10
2018-05-01T00:46:54.189Z,2.20
2018-05-01T00:49:21.764Z,2.27
2018-05-01T00:51:49.368Z,3.53
2018-05-01T00:54:18.304Z,2.60
2018-05-01T00:56:45.885Z,3.03
2018-05-01T00:59:13.469Z,1.80
2018-05-01T01:01:41.823Z,1.57
2018-05-01T01:04:09.405Z,2.87
2018-05-01T01:06:36.984Z,3.93
2018-05-01T01:09:04.599Z,3.03
2018-05-01T01:11:32.180Z,3.53
2018-05-01T01:14:00.356Z,2.40
2018-05-01T01:16:27.974Z,3.93
2018-05-01T01:18:55.558Z,3.00
2018-05-01T01:21:23.162Z,5.90
2018-05-01T01:23:50.730Z,2.97
2018-05-01T01:26:19.410Z,1.80
2018-05-01T01:28:48.164Z,2.33
2018-05-01T01:31:15.748Z,4.63
2018-05-01T01:33:43.314Z,1.83
2018-05-01T01:36:10.445Z,3.30
2018-05-01T01:38:37.535Z,2.50
2018-05-01T01:41:04.627Z,3.43
2018-05-01T01:43:31.772Z,2.80
2018-05-01T01:45:58.876Z,4.93
2018-05-01T01:48:25.962Z,5.00
2018-05-01T01:50:53.074Z,3.30
2018-05-01T01:53:20.168Z,7.00
2018-05-01T01:55:47.292Z,3.03
2018-05-01T01:58:14.384Z,3.53
2018-05-01T02:00:41.466Z,3.47
2018-05-01T02:03:09.330Z,3.63
2018-05-01T02:05:36.433Z,2.43
2018-05-01T02:08:03.534Z,3.57
2018-05-01T02:10:31.419Z,3.60
2018-05-01T02:12:59.308Z,4.00
2018-05-01T02:15:27.105Z,4.23
2018-05-01T02:17:54.193Z,2.87
2018-05-01T02:20:21.284Z,3.90
2018-05-01T02:22:49.123Z,4.87
2018-05-01T02:25:16.212Z,3.07
2018-05-01T02:27:43.325Z,4.27
2018-05-01T02:30:10.420Z,3.63
2018-05-01T02:32:37.514Z,6.03
2018-05-01T02:35:04.988Z,3.80
2018-05-01T02:37:32.149Z,3.63
2018-05-01T02:39:59.253Z,5.03
2018-05-01T02:42:27.133Z,3.73
2018-05-01T02:44:54.224Z,3.57
2018-05-01T02:47:21.391Z,2.47
2018-05-01T02:49:48.484Z,2.60
2018-05-01T02:52:15.579Z,6.40
2018-05-01T02:54:42.664Z,7.10
2018-05-01T02:57:09.751Z,5.53
2018-05-01T02:59:36.826Z,4.03
2018-05-01T03:02:05.005Z,4.97
2018-05-01T03:04:32.092Z,4.47
2018-05-01T03:06:59.223Z,4.37
2018-05-01T03:09:26.299Z,3.80
2018-05-01T03:11:53.587Z,6.60
2018-05-01T03:14:20.726Z,5.90
2018-05-01T03:16:47.818Z,4.43
2018-05-01T03:19:14.934Z,6.50
2018-05-01T03:21:42.786Z,4.50
2018-05-01T03:24:09.886Z,5.67
2018-05-01T03:26:36.982Z,5.67
2018-05-01T03:29:04.056Z,3.10
2018-05-01T03:31:31.169Z,6.10
2018-05-01T03:33:58.272Z,4.37
2018-05-01T03:36:25.356Z,3.53
2018-05-01T03:38:52.478Z,4.80
2018-05-01T03:41:20.144Z,6.57
2018-05-01T03:43:47.224Z,5.73
2018-05-01T03:46:14.299Z,6.97
2018-05-01T03:48:41.384Z,4.57
2018-05-01T03:51:10.093Z,4.40
2018-05-01T03:53:37.166Z,5.13
2018-05-01T03:56:05.033Z,6.47
2018-05-01T03:58:32.927Z,6.57
2018-05-01T04:01:00.017Z,3.50
2018-05-01T04:03:27.117Z,5.77
2018-05-01T04:05:56.347Z,4.03
2018-05-01T04:08:23.447Z,3.33
2018-05-01T04:10:50.545Z,3.73
2018-05-01T04:13:17.630Z,5.27
2018-05-01T04:15:44.746Z,5.57
2018-05-01T04:18:12.638Z,6.07
2018-05-01T04:20:40.444Z,4.90
2018-05-01T04:23:07.542Z,2.33
2018-05-01T04:25:34.638Z,4.57
2018-05-01T04:28:01.803Z,3.93
2018-05-01T04:30:28.908Z,4.33
2018-05-01T04:32:55.982Z,3.47
2018-05-01T04:35:23.125Z,4.03
2018-05-01T04:37:50.173Z,3.87
2018-05-01T04:40:17.276Z,4.10
2018-05-01T04:42:44.381Z,3.47
2018-05-01T04:45:11.477Z,4.20
2018-05-01T04:47:38.581Z,3.67
2018-05-01T04:50:05.663Z,3.00
2018-05-01T04:52:32.757Z,3.43
2018-05-01T04:54:59.825Z,3.13
2018-05-01T04:57:26.911Z,5.77
2018-05-01T04:59:54.010Z,4.80
2018-05-01T05:02:21.104Z,4.70
2018-05-01T05:04:48.196Z,4.47
2018-05-01T05:07:15.302Z,6.70
2018-05-01T05:09:43.154Z,6.70
2018-05-01T05:12:11.069Z,6.43
2018-05-01T05:14:38.176Z,5.67
2018-05-01T05:17:05.282Z,10.70
2018-05-01T05:19:32.382Z,9.93
2018-05-01T05:21:59.482Z,10.37
2018-05-01T05:24:26.565Z,6.30
2018-05-01T05:26:53.640Z,8.80
2018-05-01T05:29:20.734Z,6.97
2018-05-01T05:31:48.591Z,8.20
2018-05-01T05:34:16.445Z,12.43
2018-05-01T05:36:43.554Z,10.47
2018-05-01T05:39:10.717Z,10.17
2018-05-01T05:41:37.797Z,9.20
2018-05-01T05:44:04.879Z,8.63
2018-05-01T05:46:32.825Z,14.17
2018-05-01T05:48:59.974Z,12.03
2018-05-01T05:51:27.048Z,8.60
2018-05-01T05:53:54.147Z,12.20
2018-05-01T05:56:21.247Z,12.20
2018-05-01T05:58:48.303Z,14.37
2018-05-01T06:01:15.914Z,11.50
2018-05-01T06:03:43.014Z,11.93
2018-05-01T06:06:10.125Z,14.33
2018-05-01T06:08:37.210Z,16.73
2018-05-01T06:11:04.314Z,18.53
2018-05-01T06:13:31.490Z,14.40
2018-05-01T06:15:58.571Z,12.03
2018-05-01T06:18:25.665Z,12.37
2018-05-01T06:20:53.515Z,15.53
2018-05-01T06:23:20.637Z,16.70
2018-05-01T06:25:47.780Z,18.43
2018-05-01T06:28:14.908Z,17.57
2018-05-01T06:30:42.755Z,19.20
2018-05-01T06:33:09.848Z,22.20
2018-05-01T06:35:38.348Z,20.63
2018-05-01T06:38:05.436Z,20.20
2018-05-01T06:40:32.598Z,19.33
2018-05-01T06:42:59.694Z,18.40
2018-05-01T06:45:27.494Z,18.23
2018-05-01T06:47:55.972Z,17.00
2018-05-01T06:50:23.086Z,17.87
2018-05-01T06:52:50.930Z,18.70
2018-05-01T06:55:18.063Z,17.47
2018-05-01T06:57:45.150Z,17.10
2018-05-01T07:00:13.027Z,14.90
2018-05-01T07:02:40.125Z,17.87
2018-05-01T07:05:08.839Z,20.33
2018-05-01T07:07:35.963Z,14.70
2018-05-01T07:10:03.037Z,13.17
2018-05-01T07:12:30.109Z,15.30
2018-05-01T07:14:57.289Z,16.13
2018-05-01T07:17:24.411Z,19.73
2018-05-01T07:19:51.516Z,15.80
2018-05-01T07:22:18.619Z,14.80
2018-05-01T07:24:45.731Z,14.67
2018-05-01T07:27:14.014Z,16.17
2018-05-01T07:29:41.099Z,14.10
2018-05-01T07:32:08.192Z,17.83
2018-05-01T07:34:35.301Z,15.50
2018-05-01T07:37:02.382Z,16.43
2018-05-01T07:39:29.472Z,14.93
2018-05-01T07:41:57.329Z,18.53
2018-05-01T07:44:24.444Z,17.57
2018-05-01T07:46:51.544Z,16.47
2018-05-01T07:49:19.658Z,14.77
2018-05-01T07:51:46.760Z,17.60
2018-05-01T07:54:13.852Z,14.67
2018-05-01T07:56:40.958Z,12.87
2018-05-01T07:59:08.072Z,14.23
2018-05-01T08:01:35.178Z,20.77
2018-05-01T08:04:02.286Z,13.13
2018-05-01T08:06:29.389Z,17.57
2018-05-01T08:08:58.691Z,17.70
2018-05-01T08:11:27.244Z,14.80
2018-05-01T08:13:55.533Z,15.70
2018-05-01T08:16:22.638Z,14.70
2018-05-01T08:18:50.503Z,16.37
2018-05-01T08:21:18.325Z,12.43
2018-05-01T08:23:45.448Z,14.77
2018-05-01T08:26:12.543Z,14.60
2018-05-01T08:28:39.647Z,11.27
2018-05-01T08:31:06.908Z,13.50
2018-05-01T08:33:34.043Z,12.63
2018-05-01T08:36:01.921Z,13.97
2018-05-01T08:38:29.795Z,10.57
2018-05-01T08:40:56.915Z,12.97
2018-05-01T08:43:24.014Z,11.83
2018-05-01T08:45:51.091Z,10.43
2018-05-01T08:48:18.179Z,9.73
2018-05-01T08:50:45.332Z,11.63
2018-05-01T08:53:13.257Z,11.33
2018-05-01T08:55:40.351Z,9.47
2018-05-01T08:58:08.450Z,10.30
2018-05-01T09:00:36.332Z,11.70
2018-05-01T09:03:04.180Z,11.63
2018-05-01T09:05:31.276Z,12.87
2018-05-01T09:07:58.368Z,10.73
2018-05-01T09:10:25.469Z,10.33
2018-05-01T09:12:53.333Z,11.40
2018-05-01T09:15:21.220Z,14.03
2018-05-01T09:17:48.395Z,14.80
2018-05-01T09:20:16.318Z,11.73
2018-05-01T09:22:43.417Z,14.33
2018-05-01T09:25:10.512Z,14.47
2018-05-01T09:27:37.612Z,13.10
2018-05-01T09:30:04.730Z,12.30
2018-05-01T09:32:31.836Z,14.03
2018-05-01T09:34:59.917Z,16.13
2018-05-01T09:37:27.059Z,13.40
2018-05-01T09:39:54.167Z,17.37
2018-05-01T09:42:21.252Z,15.53
2018-05-01T09:44:49.115Z,17.03
2018-05-01T09:47:16.977Z,19.57
2018-05-01T09:49:44.862Z,16.23
2018-05-01T09:52:13.357Z,13.87
2018-05-01T09:54:40.985Z,16.30
2018-05-01T09:57:08.562Z,17.27
2018-05-01T09:59:36.168Z,19.50
2018-05-01T10:02:03.772Z,15.07
2018-05-01T10:04:31.342Z,17.73
2018-05-01T10:06:58.939Z,15.70
2018-05-01T10:09:27.291Z,17.30
2018-05-01T10:11:54.871Z,17.63
2018-05-01T10:14:22.451Z,18.50
2018-05-01T10:16:51.751Z,19.77
2018-05-01T10:19:20.123Z,14.37
2018-05-01T10:21:48.468Z,14.27
2018-05-01T10:24:16.051Z,19.33
2018-05-01T10:26:43.634Z,14.53
2018-05-01T10:29:11.254Z,14.67
2018-05-01T10:31:38.838Z,13.50
2018-05-01T10:34:06.430Z,15.03
2018-05-01T10:36:34.785Z,14.83
2018-05-01T10:39:02.416Z,13.70
2018-05-01T10:41:30.238Z,11.73
2018-05-01T10:43:57.830Z,14.43
2018-05-01T10:46:25.412Z,15.77
2018-05-01T10:48:53.662Z,18.77
2018-05-01T10:51:22.024Z,13.73
2018-05-01T10:53:49.625Z,13.10
2018-05-01T10:56:17.991Z,11.83
2018-05-01T10:58:46.335Z,15.33
2018-05-01T11:01:13.913Z,14.93
2018-05-01T11:03:41.521Z,12.43
2018-05-01T11:06:09.139Z,10.00
2018-05-01T11:08:36.723Z,12.90
2018-05-01T11:11:04.318Z,11.90
2018-05-01T11:13:33.041Z,11.57
2018-05-01T11:16:00.707Z,12.87
2018-05-01T11:18:28.302Z,10.30
2018-05-01T11:20:56.727Z,8.63
2018-05-01T11:23:25.095Z,9.10
2018-05-01T11:25:52.720Z,10.00
2018-05-01T11:28:21.033Z,7.17
2018-05-01T11:30:49.388Z,10.47
2018-05-01T11:33:17.013Z,8.57
2018-05-01T11:35:44.632Z,8.83
2018-05-01T11:38:12.236Z,8.37
2018-05-01T11:40:39.859Z,8.03
2018-05-01T11:43:07.426Z,9.73
2018-05-01T11:45:35.000Z,8.67
2018-05-01T11:48:02.580Z,7.70
2018-05-01T11:50:30.943Z,8.77
2018-05-01T11:52:58.521Z,9.90
2018-05-01T11:55:26.109Z,7.93
2018-05-01T11:57:53.689Z,8.63
2018-05-01T12:00:21.340Z,10.67
2018-05-01T12:02:49.695Z,7.90
2018-05-01T12:05:18.056Z,9.37
2018-05-01T12:07:45.652Z,19.80
2018-05-01T12:10:15.588Z,8.40
2018-05-01T12:12:43.929Z,27.13
2018-05-01T12:15:11.784Z,8.90
2018-05-01T12:17:39.372Z,7.97
2018-05-01T12:20:06.952Z,7.47
2018-05-01T12:22:34.679Z,7.77
2018-05-01T12:25:02.277Z,4.73
2018-05-01T12:27:29.881Z,5.13
2018-05-01T12:29:57.493Z,6.37
2018-05-01T12:32:25.064Z,5.53
2018-05-01T12:34:52.669Z,3.07
2018-05-01T12:37:20.235Z,6.47
2018-05-01T12:39:48.281Z,5.07
2018-05-01T12:42:15.960Z,5.67
2018-05-01T12:44:44.268Z,6.23
2018-05-01T12:47:11.866Z,4.50
2018-05-01T12:49:39.446Z,4.80
2018-05-01T12:52:07.738Z,8.83
2018-05-01T12:54:35.348Z,4.07
2018-05-01T12:57:03.111Z,4.97
2018-05-01T12:59:30.674Z,4.53
2018-05-01T13:01:58.249Z,4.57
2018-05-01T13:04:26.818Z,4.73
2018-05-01T13:06:54.415Z,4.93
2018-05-01T13:09:22.728Z,5.63
2018-05-01T13:11:50.326Z,5.10
2018-05-01T13:14:17.949Z,3.27
2018-05-01T13:16:45.525Z,4.10
2018-05-01T13:19:13.167Z,5.93
2018-05-01T13:21:40.759Z,5.53
2018-05-01T13:24:08.343Z,6.97
2018-05-01T13:26:37.618Z,1.90
2018-05-01T13:29:05.208Z,3.60
2018-05-01T13:31:33.562Z,4.23
2018-05-01T13:34:01.242Z,8.13
2018-05-01T13:36:28.815Z,5.10
2018-05-01T13:38:56.400Z,2.43
2018-05-01T13:41:25.031Z,4.00
2018-05-01T13:43:53.170Z,5.93
2018-05-01T13:46:21.539Z,3.77
2018-05-01T13:48:50.526Z,4.20
2018-05-01T13:51:18.087Z,8.47
2018-05-01T13:53:46.627Z,4.47
2018-05-01T13:56:14.209Z,2.53
2018-05-01T13:58:41.809Z,3.73
2018-05-01T14:01:09.454Z,4.73
2018-05-01T14:03:37.079Z,5.53
2018-05-01T14:06:05.557Z,3.23
2018-05-01T14:08:33.141Z,2.73
2018-05-01T14:11:00.767Z,2.73
2018-05-01T14:13:28.338Z,4.73
2018-05-01T14:15:56.214Z,6.03
2018-05-01T14:18:23.785Z,6.03
2018-05-01T14:20:51.459Z,6.37
2018-05-01T14:23:19.047Z,3.33
2018-05-01T14:25:46.728Z,4.00
2018-05-01T14:28:14.272Z,4.77
2018-05-01T14:30:41.844Z,3.60
2018-05-01T14:33:09.444Z,2.70
2018-05-01T14:35:37.055Z,4.87
2018-05-01T14:38:04.619Z,5.20
2018-05-01T14:40:32.221Z,5.70
2018-05-01T14:42:59.854Z,6.20
2018-05-01T14:45:27.545Z,9.70
2018-05-01T14:47:55.158Z,6.77
2018-05-01T14:50:23.507Z,13.97
2018-05-01T14:52:51.138Z,5.77
2018-05-01T14:55:18.777Z,6.80
2018-05-01T14:57:46.350Z,5.63
2018-05-01T15:00:13.962Z,6.63
2018-05-01T15:02:53.295Z,5.63
2018-05-01T15:05:20.881Z,4.17
2018-05-01T15:07:48.448Z,10.97
2018-05-01T15:10:16.779Z,4.27
2018-05-01T15:12:44.877Z,25.63
2018-05-01T15:15:12.450Z,11.90
2018-05-01T15:17:40.067Z,15.97
2018-05-01T15:20:07.645Z,6.83
2018-05-01T15:22:35.248Z,2.90
2018-05-01T15:25:02.942Z,3.47
2018-05-01T15:27:30.659Z,3.87
2018-05-01T15:29:58.370Z,5.73
2018-05-01T15:32:25.922Z,4.77
2018-05-01T15:34:53.650Z,4.63
2018-05-01T15:37:21.319Z,5.13
2018-05-01T15:39:48.903Z,5.40
2018-05-01T15:42:16.516Z,5.00
2018-05-01T15:44:44.896Z,3.30
2018-05-01T15:47:13.249Z,7.37
2018-05-01T15:49:40.860Z,6.00
2018-05-01T15:52:08.446Z,9.60
2018-05-01T15:54:36.077Z,11.10
2018-05-01T15:57:03.678Z,8.40
2018-05-01T15:59:31.267Z,6.20
2018-05-01T16:01:58.842Z,6.27
2018-05-01T16:04:26.412Z,4.10
2018-05-01T16:06:54.833Z,7.70
2018-05-01T16:09:22.421Z,8.87
2018-05-01T16:11:50.515Z,8.50
2018-05-01T16:14:18.137Z,4.43
2018-05-01T16:16:46.496Z,11.50
2018-05-01T16:19:14.108Z,9.33
2018-05-01T16:21:41.720Z,5.83
2018-05-01T16:24:09.298Z,4.47
2018-05-01T16:26:36.882Z,8.80
2018-05-01T16:29:05.238Z,9.63
2018-05-01T16:31:32.862Z,11.03
2018-05-01T16:34:00.508Z,15.73
2018-05-01T16:36:30.311Z,5.53
2018-05-01T16:38:57.879Z,3.73
2018-05-01T16:41:25.467Z,4.77
2018-05-01T16:43:53.089Z,3.23
2018-05-01T16:46:22.207Z,4.70
2018-05-01T16:48:51.398Z,10.23
2018-05-01T16:51:19.720Z,2.60
2018-05-01T16:53:47.591Z,7.23
2018-05-01T16:56:15.176Z,12.33
2018-05-01T16:58:42.767Z,3.13
2018-05-01T17:01:10.380Z,4.37
2018-05-01T17:03:37.945Z,8.87
2018-05-01T17:06:05.534Z,5.70
2018-05-01T17:08:33.098Z,5.60
2018-05-01T17:11:00.654Z,5.67
2018-05-01T17:13:28.976Z,7.37
2018-05-01T17:15:56.560Z,3.97
2018-05-01T17:18:24.142Z,2.47
2018-05-01T17:20:51.742Z,3.90
2018-05-01T17:23:19.335Z,4.03
2018-05-01T17:25:46.922Z,2.23
2018-05-01T17:28:14.489Z,10.47
2018-05-01T17:30:42.072Z,5.20
2018-05-01T17:33:09.643Z,5.23
2018-05-01T17:35:37.197Z,3.20
2018-05-01T17:38:04.767Z,3.50
2018-05-01T17:40:32.340Z,3.03
2018-05-01T17:43:00.697Z,4.40
2018-05-01T17:45:28.454Z,4.47
2018-05-01T17:47:56.836Z,5.33
2018-05-01T17:50:25.180Z,5.90
2018-05-01T17:52:52.734Z,4.37
2018-05-01T17:55:20.294Z,6.00
2018-05-01T17:57:47.868Z,5.30
2018-05-01T18:00:15.430Z,4.07
2018-05-01T18:02:43.286Z,3.70
2018-05-01T18:05:10.871Z,3.93
2018-05-01T18:07:38.429Z,4.73
2018-05-01T18:10:05.990Z,4.20
2018-05-01T18:12:33.601Z,3.80
2018-05-01T18:15:01.143Z,5.80
2018-05-01T18:17:28.713Z,4.93
2018-05-01T18:19:56.302Z,7.20
2018-05-01T18:22:24.630Z,3.30
2018-05-01T18:24:52.204Z,5.53
2018-05-01T18:27:19.813Z,5.83
2018-05-01T18:29:48.936Z,10.07
2018-05-01T18:32:16.532Z,9.90
2018-05-01T18:34:44.148Z,11.63
2018-05-01T18:37:12.472Z,9.53
2018-05-01T18:39:40.053Z,3.53
2018-05-01T18:42:07.641Z,3.63
2018-05-01T18:44:35.210Z,3.70
2018-05-01T18:47:02.787Z,2.43
2018-05-01T18:49:31.135Z,3.03
2018-05-01T18:51:58.691Z,2.13
2018-05-01T18:54:26.257Z,3.13
2018-05-01T18:56:53.833Z,4.60
2018-05-01T18:59:21.387Z,3.67
2018-05-01T19:01:48.946Z,3.83
2018-05-01T19:04:16.515Z,2.37
2018-05-01T19:06:44.151Z,3.43
2018-05-01T19:09:11.723Z,4.77
2018-05-01T19:11:39.331Z,3.10
2018-05-01T19:14:06.944Z,4.47
2018-05-01T19:16:34.549Z,2.63
2018-05-01T19:19:02.122Z,5.67
2018-05-01T19:21:29.694Z,8.83
2018-05-01T19:23:57.270Z,6.97
2018-05-01T19:26:25.755Z,7.07
2018-05-01T19:28:54.705Z,4.83
2018-05-01T19:31:22.314Z,5.17
2018-05-01T19:33:49.906Z,2.93
2018-05-01T19:36:17.462Z,4.10
2018-05-01T19:38:45.060Z,3.00
2018-05-01T19:41:12.634Z,5.23
2018-05-01T19:43:40.242Z,6.17
2018-05-01T19:46:08.598Z,3.77
2018-05-01T19:48:36.173Z,3.70
2018-05-01T19:51:03.830Z,5.47
2018-05-01T19:53:31.351Z,3.80
2018-05-01T19:55:58.913Z,4.70
2018-05-01T19:58:26.498Z,3.47
2018-05-01T20:00:54.076Z,5.10
2018-05-01T20:03:21.744Z,4.03
2018-05-01T20:05:49.292Z,3.80
2018-05-01T20:08:16.920Z,5.30
2018-05-01T20:10:44.484Z,7.00
2018-05-01T20:13:12.066Z,5.80
2018-05-01T20:15:39.648Z,5.67
2018-05-01T20:18:07.239Z,9.80
2018-05-01T20:20:34.847Z,5.20
2018-05-01T20:23:03.213Z,5.07
2018-05-01T20:25:31.617Z,7.33
2018-05-01T20:27:59.957Z,4.63
2018-05-01T20:30:27.572Z,5.53
2018-05-01T20:32:55.188Z,2.80
2018-05-01T20:35:22.821Z,3.87
2018-05-01T20:37:50.396Z,3.30
2018-05-01T20:40:18.174Z,4.53
2018-05-01T20:42:45.744Z,5.47
2018-05-01T20:45:13.302Z,4.37
2018-05-01T20:47:41.364Z,5.33
2018-05-01T20:50:08.930Z,3.67
2018-05-01T20:52:36.519Z,5.83
2018-05-01T20:55:04.138Z,7.07
2018-05-01T20:57:31.782Z,6.87
2018-05-01T21:00:00.032Z,6.67
2018-05-01T21:02:28.644Z,7.70
2018-05-01T21:04:56.229Z,5.20
2018-05-01T21:07:23.798Z,5.10
2018-05-01T21:09:51.415Z,6.17
2018-05-01T21:12:19.799Z,8.70
2018-05-01T21:14:47.382Z,6.23
2018-05-01T21:17:15.741Z,6.57
2018-05-01T21:19:43.330Z,5.93
2018-05-01T21:22:10.952Z,5.63
2018-05-01T21:24:38.803Z,8.37
2018-05-01T21:27:06.417Z,7.87
2018-05-01T21:29:34.035Z,6.03
2018-05-01T21:32:01.672Z,7.03
2018-05-01T21:34:30.057Z,8.47
2018-05-01T21:36:58.412Z,7.60
2018-05-01T21:39:25.983Z,7.87
2018-05-01T21:41:53.576Z,8.93
2018-05-01T21:44:21.934Z,9.80
2018-05-01T21:46:49.533Z,7.47
2018-05-01T21:49:17.868Z,12.97
2018-05-01T21:51:45.511Z,7.37
2018-05-01T21:54:13.099Z,9.00
2018-05-01T21:56:40.707Z,6.53
2018-05-01T21:59:09.755Z,11.27
2018-05-01T22:01:37.351Z,8.90
2018-05-01T22:04:04.979Z,8.13
2018-05-01T22:06:33.414Z,8.80
2018-05-01T22:09:01.010Z,10.07
2018-05-01T22:11:28.660Z,9.13
2018-05-01T22:13:56.272Z,8.73
2018-05-01T22:16:23.849Z,9.27
2018-05-01T22:18:51.452Z,9.33
2018-05-01T22:21:19.020Z,9.83
2018-05-01T22:23:47.352Z,9.27
2018-05-01T22:26:14.961Z,8.23
2018-05-01T22:28:42.533Z,9.37
2018-05-01T22:31:10.597Z,10.07
2018-05-01T22:33:39.044Z,9.73
2018-05-01T22:36:06.632Z,11.13
2018-05-01T22:38:34.209Z,9.40
2018-05-01T22:41:02.579Z,13.37
2018-05-01T22:43:30.145Z,10.20
2018-05-01T22:45:58.559Z,10.23
2018-05-01T22:48:26.909Z,11.03
2018-05-01T22:50:54.497Z,11.27
2018-05-01T22:53:22.839Z,10.53
2018-05-01T22:55:50.514Z,10.23
2018-05-01T22:58:18.112Z,9.70
2018-05-01T23:00:46.448Z,10.70
2018-05-01T23:03:14.029Z,11.43
2018-05-01T23:05:41.605Z,11.00
2018-05-01T23:08:09.156Z,12.13
2018-05-01T23:10:36.741Z,10.43
2018-05-01T23:13:04.327Z,11.60
2018-05-01T23:15:31.928Z,13.37
2018-05-01T23:17:59.553Z,11.87
2018-05-01T23:20:27.141Z,10.43
2018-05-01T23:22:54.714Z,12.03
2018-05-01T23:25:22.293Z,10.43
2018-05-01T23:27:49.878Z,12.47
2018-05-01T23:30:17.493Z,13.53
2018-05-01T23:32:45.097Z,12.67
2018-05-01T23:35:12.689Z,10.97
2018-05-01T23:37:41.039Z,15.13
2018-05-01T23:40:08.626Z,11.47
2018-05-01T23:42:36.222Z,15.87
2018-05-01T23:45:03.858Z,11.93
2018-05-01T23:47:31.446Z,13.17
2018-05-01T23:49:59.043Z,11.57
2018-05-01T23:52:26.608Z,12.07
2018-05-01T23:54:54.996Z,11.67
2018-05-01T23:57:22.626Z,12.93
2018-05-01T23:59:50.966Z,12.27
